sensor_id;sensor_type;location;lat;lon;timestamp;P1;durP1;ratioP1;P2;durP2;ratioP2
31424;SDS011;18054;51.572;7.372;2023-11-19T00:00:42;4.43;;;1.98;;
31424;SDS011;18054;51.572;7.372;2023-11-19T00:03:19;7.30;;;1.67;;
31424;SDS011;18054;51.572;7.372;2023-11-19T00:05:47;3.38;;;1.48;;
31424;SDS011;18054;51.572;7.372;2023-11-19T00:08:18;4.38;;;1.90;;
31424;SDS011;18054;51.572;7.372;2023-11-19T00:10:46;8.18;;;2.10;;
31424;SDS011;18054;51.572;7.372;2023-11-19T00:13:14;3.65;;;1.80;;
31424;SDS011;18054;51.572;7.372;2023-11-19T00:15:42;3.42;;;1.80;;
31424;SDS011;18054;51.572;7.372;2023-11-19T00:18:13;5.57;;;2.20;;
31424;SDS011;18054;51.572;7.372;2023-11-19T00:20:42;4.72;;;2.03;;
31424;SDS011;18054;51.572;7.372;2023-11-19T00:23:11;3.45;;;1.80;;
31424;SDS011;18054;51.572;7.372;2023-11-19T00:25:40;6.22;;;2.25;;
31424;SDS011;18054;51.572;7.372;2023-11-19T00:28:08;6.15;;;2.30;;
31424;SDS011;18054;51.572;7.372;2023-11-19T00:30:36;5.30;;;2.40;;
31424;SDS011;18054;51.572;7.372;2023-11-19T00:33:04;9.60;;;2.63;;
31424;SDS011;18054;51.572;7.372;2023-11-19T00:35:32;5.22;;;2.60;;
31424;SDS011;18054;51.572;7.372;2023-11-19T00:40:28;8.88;;;2.55;;
31424;SDS011;18054;51.572;7.372;2023-11-19T00:42:57;5.43;;;2.50;;
31424;SDS011;18054;51.572;7.372;2023-11-19T00:45:28;6.03;;;2.45;;
31424;SDS011;18054;51.572;7.372;2023-11-19T00:47:56;6.38;;;2.75;;
31424;SDS011;18054;51.572;7.372;2023-11-19T00:50:26;8.00;;;3.10;;
31424;SDS011;18054;51.572;7.372;2023-11-19T00:52:53;4.65;;;2.83;;
31424;SDS011;18054;51.572;7.372;2023-11-19T00:55:21;6.18;;;3.10;;
31424;SDS011;18054;51.572;7.372;2023-11-19T00:57:48;11.70;;;3.50;;
31424;SDS011;18054;51.572;7.372;2023-11-19T01:02:34;6.63;;;3.55;;
31424;SDS011;18054;51.572;7.372;2023-11-19T01:05:02;5.95;;;3.17;;
31424;SDS011;18054;51.572;7.372;2023-11-19T01:09:57;7.63;;;4.10;;
31424;SDS011;18054;51.572;7.372;2023-11-19T01:12:25;12.18;;;4.45;;
31424;SDS011;18054;51.572;7.372;2023-11-19T01:14:52;13.65;;;3.70;;
31424;SDS011;18054;51.572;7.372;2023-11-19T01:17:21;9.90;;;4.10;;
31424;SDS011;18054;51.572;7.372;2023-11-19T01:22:18;8.05;;;3.63;;
31424;SDS011;18054;51.572;7.372;2023-11-19T01:24:45;6.40;;;3.70;;
31424;SDS011;18054;51.572;7.372;2023-11-19T01:27:13;10.68;;;4.13;;
31424;SDS011;18054;51.572;7.372;2023-11-19T01:29:41;5.72;;;3.40;;
31424;SDS011;18054;51.572;7.372;2023-11-19T01:32:09;5.40;;;3.15;;
31424;SDS011;18054;51.572;7.372;2023-11-19T01:34:36;8.68;;;3.78;;
31424;SDS011;18054;51.572;7.372;2023-11-19T01:37:04;9.13;;;3.20;;
31424;SDS011;18054;51.572;7.372;2023-11-19T01:39:33;7.00;;;3.30;;
31424;SDS011;18054;51.572;7.372;2023-11-19T01:42:01;4.85;;;3.00;;
31424;SDS011;18054;51.572;7.372;2023-11-19T01:44:28;9.27;;;2.85;;
31424;SDS011;18054;51.572;7.372;2023-11-19T01:46:56;6.75;;;2.72;;
31424;SDS011;18054;51.572;7.372;2023-11-19T01:49:23;8.32;;;2.90;;
31424;SDS011;18054;51.572;7.372;2023-11-19T01:51:51;3.30;;;1.98;;
31424;SDS011;18054;51.572;7.372;2023-11-19T01:54:19;7.05;;;2.40;;
31424;SDS011;18054;51.572;7.372;2023-11-19T01:56:47;6.53;;;2.47;;
31424;SDS011;18054;51.572;7.372;2023-11-19T01:59:15;5.53;;;1.80;;
31424;SDS011;18054;51.572;7.372;2023-11-19T02:04:10;4.97;;;1.98;;
31424;SDS011;18054;51.572;7.372;2023-11-19T02:06:39;7.55;;;2.40;;
31424;SDS011;18054;51.572;7.372;2023-11-19T02:09:08;5.20;;;2.40;;
31424;SDS011;18054;51.572;7.372;2023-11-19T02:14:05;4.55;;;2.17;;
31424;SDS011;18054;51.572;7.372;2023-11-19T02:16:33;5.30;;;2.28;;
31424;SDS011;18054;51.572;7.372;2023-11-19T02:19:01;8.32;;;2.83;;
31424;SDS011;18054;51.572;7.372;2023-11-19T02:21:30;5.90;;;2.50;;
31424;SDS011;18054;51.572;7.372;2023-11-19T02:23:57;7.50;;;2.20;;
31424;SDS011;18054;51.572;7.372;2023-11-19T02:26:28;4.90;;;2.38;;
31424;SDS011;18054;51.572;7.372;2023-11-19T02:29:01;7.65;;;2.50;;
31424;SDS011;18054;51.572;7.372;2023-11-19T02:31:33;4.75;;;2.00;;
31424;SDS011;18054;51.572;7.372;2023-11-19T02:34:02;4.82;;;2.85;;
31424;SDS011;18054;51.572;7.372;2023-11-19T02:36:30;7.82;;;2.72;;
31424;SDS011;18054;51.572;7.372;2023-11-19T02:38:58;8.15;;;3.08;;
31424;SDS011;18054;51.572;7.372;2023-11-19T02:41:26;7.05;;;3.42;;
31424;SDS011;18054;51.572;7.372;2023-11-19T02:43:53;11.07;;;3.47;;
31424;SDS011;18054;51.572;7.372;2023-11-19T02:46:22;10.98;;;3.10;;
31424;SDS011;18054;51.572;7.372;2023-11-19T02:48:50;9.55;;;3.03;;
31424;SDS011;18054;51.572;7.372;2023-11-19T02:51:18;6.82;;;2.47;;
31424;SDS011;18054;51.572;7.372;2023-11-19T02:53:45;11.20;;;2.88;;
31424;SDS011;18054;51.572;7.372;2023-11-19T02:56:14;6.10;;;2.17;;
31424;SDS011;18054;51.572;7.372;2023-11-19T02:58:47;12.98;;;2.85;;
31424;SDS011;18054;51.572;7.372;2023-11-19T03:01:22;10.75;;;2.25;;
31424;SDS011;18054;51.572;7.372;2023-11-19T03:03:56;19.70;;;2.90;;
31424;SDS011;18054;51.572;7.372;2023-11-19T03:06:24;12.52;;;2.78;;
31424;SDS011;18054;51.572;7.372;2023-11-19T03:08:54;13.13;;;2.60;;
31424;SDS011;18054;51.572;7.372;2023-11-19T03:11:21;17.90;;;2.92;;
31424;SDS011;18054;51.572;7.372;2023-11-19T03:13:49;6.35;;;2.45;;
31424;SDS011;18054;51.572;7.372;2023-11-19T03:16:16;16.42;;;2.55;;
31424;SDS011;18054;51.572;7.372;2023-11-19T03:21:13;13.68;;;2.95;;
31424;SDS011;18054;51.572;7.372;2023-11-19T03:23:40;17.05;;;2.85;;
31424;SDS011;18054;51.572;7.372;2023-11-19T03:26:10;10.98;;;1.80;;
31424;SDS011;18054;51.572;7.372;2023-11-19T03:28:38;8.00;;;2.33;;
31424;SDS011;18054;51.572;7.372;2023-11-19T03:31:05;12.98;;;2.67;;
31424;SDS011;18054;51.572;7.372;2023-11-19T03:33:34;16.17;;;2.85;;
31424;SDS011;18054;51.572;7.372;2023-11-19T03:36:02;13.65;;;2.60;;
31424;SDS011;18054;51.572;7.372;2023-11-19T03:38:31;16.63;;;2.83;;
31424;SDS011;18054;51.572;7.372;2023-11-19T03:40:58;9.45;;;2.65;;
31424;SDS011;18054;51.572;7.372;2023-11-19T03:43:26;12.10;;;2.60;;
31424;SDS011;18054;51.572;7.372;2023-11-19T03:45:54;22.33;;;3.28;;
31424;SDS011;18054;51.572;7.372;2023-11-19T03:48:21;10.65;;;2.63;;
31424;SDS011;18054;51.572;7.372;2023-11-19T03:50:49;15.63;;;2.72;;
31424;SDS011;18054;51.572;7.372;2023-11-19T03:53:17;17.77;;;2.53;;
31424;SDS011;18054;51.572;7.372;2023-11-19T03:55:46;19.27;;;3.65;;
31424;SDS011;18054;51.572;7.372;2023-11-19T03:58:14;18.02;;;2.70;;
31424;SDS011;18054;51.572;7.372;2023-11-19T04:00:41;17.98;;;3.03;;
31424;SDS011;18054;51.572;7.372;2023-11-19T04:03:09;15.60;;;3.28;;
31424;SDS011;18054;51.572;7.372;2023-11-19T04:05:36;22.23;;;3.28;;
31424;SDS011;18054;51.572;7.372;2023-11-19T04:08:04;16.25;;;3.22;;
31424;SDS011;18054;51.572;7.372;2023-11-19T04:10:31;15.55;;;2.85;;
31424;SDS011;18054;51.572;7.372;2023-11-19T04:13:00;25.48;;;3.78;;
31424;SDS011;18054;51.572;7.372;2023-11-19T04:15:28;20.20;;;3.53;;
31424;SDS011;18054;51.572;7.372;2023-11-19T04:17:55;15.07;;;2.95;;
31424;SDS011;18054;51.572;7.372;2023-11-19T04:20:23;24.92;;;3.38;;
31424;SDS011;18054;51.572;7.372;2023-11-19T04:22:52;17.35;;;3.17;;
31424;SDS011;18054;51.572;7.372;2023-11-19T04:25:19;29.08;;;4.45;;
31424;SDS011;18054;51.572;7.372;2023-11-19T04:27:49;18.88;;;3.20;;
31424;SDS011;18054;51.572;7.372;2023-11-19T04:30:18;22.42;;;3.88;;
31424;SDS011;18054;51.572;7.372;2023-11-19T04:32:46;17.85;;;3.10;;
31424;SDS011;18054;51.572;7.372;2023-11-19T04:35:15;19.48;;;3.03;;
31424;SDS011;18054;51.572;7.372;2023-11-19T04:37:43;31.92;;;3.95;;
31424;SDS011;18054;51.572;7.372;2023-11-19T04:40:11;24.92;;;3.55;;
31424;SDS011;18054;51.572;7.372;2023-11-19T04:42:39;18.00;;;2.80;;
31424;SDS011;18054;51.572;7.372;2023-11-19T04:45:07;17.85;;;3.25;;
31424;SDS011;18054;51.572;7.372;2023-11-19T04:47:37;15.38;;;2.92;;
31424;SDS011;18054;51.572;7.372;2023-11-19T04:50:06;22.15;;;3.03;;
31424;SDS011;18054;51.572;7.372;2023-11-19T04:52:37;23.48;;;3.40;;
31424;SDS011;18054;51.572;7.372;2023-11-19T04:55:06;25.63;;;3.58;;
31424;SDS011;18054;51.572;7.372;2023-11-19T05:00:01;31.58;;;3.42;;
31424;SDS011;18054;51.572;7.372;2023-11-19T05:02:44;22.83;;;3.70;;
31424;SDS011;18054;51.572;7.372;2023-11-19T05:05:11;17.52;;;2.72;;
31424;SDS011;18054;51.572;7.372;2023-11-19T05:07:39;27.15;;;3.58;;
31424;SDS011;18054;51.572;7.372;2023-11-19T05:10:07;21.65;;;3.42;;
31424;SDS011;18054;51.572;7.372;2023-11-19T05:12:35;29.58;;;4.88;;
31424;SDS011;18054;51.572;7.372;2023-11-19T05:15:02;22.75;;;3.53;;
31424;SDS011;18054;51.572;7.372;2023-11-19T05:17:30;36.40;;;5.00;;
31424;SDS011;18054;51.572;7.372;2023-11-19T05:19:59;27.52;;;3.33;;
31424;SDS011;18054;51.572;7.372;2023-11-19T05:22:26;21.80;;;3.70;;
31424;SDS011;18054;51.572;7.372;2023-11-19T05:24:54;27.00;;;3.15;;
31424;SDS011;18054;51.572;7.372;2023-11-19T05:29:50;24.25;;;4.00;;
31424;SDS011;18054;51.572;7.372;2023-11-19T05:32:17;27.42;;;4.32;;
31424;SDS011;18054;51.572;7.372;2023-11-19T05:34:44;35.85;;;4.40;;
31424;SDS011;18054;51.572;7.372;2023-11-19T05:37:16;32.55;;;4.88;;
31424;SDS011;18054;51.572;7.372;2023-11-19T05:39:45;35.90;;;4.35;;
31424;SDS011;18054;51.572;7.372;2023-11-19T05:42:12;29.58;;;4.63;;
31424;SDS011;18054;51.572;7.372;2023-11-19T05:44:40;26.60;;;3.78;;
31424;SDS011;18054;51.572;7.372;2023-11-19T05:47:07;37.95;;;4.78;;
31424;SDS011;18054;51.572;7.372;2023-11-19T05:49:35;34.67;;;5.10;;
31424;SDS011;18054;51.572;7.372;2023-11-19T05:52:02;37.88;;;5.90;;
31424;SDS011;18054;51.572;7.372;2023-11-19T05:54:35;35.42;;;4.75;;
31424;SDS011;18054;51.572;7.372;2023-11-19T05:57:04;32.63;;;4.25;;
31424;SDS011;18054;51.572;7.372;2023-11-19T05:59:31;32.28;;;4.85;;
31424;SDS011;18054;51.572;7.372;2023-11-19T06:04:26;34.78;;;5.45;;
31424;SDS011;18054;51.572;7.372;2023-11-19T06:06:54;31.45;;;3.72;;
31424;SDS011;18054;51.572;7.372;2023-11-19T06:09:21;35.53;;;4.45;;
31424;SDS011;18054;51.572;7.372;2023-11-19T06:11:51;34.13;;;4.63;;
31424;SDS011;18054;51.572;7.372;2023-11-19T06:14:19;27.25;;;3.92;;
31424;SDS011;18054;51.572;7.372;2023-11-19T06:16:46;31.73;;;4.72;;
31424;SDS011;18054;51.572;7.372;2023-11-19T06:19:14;27.70;;;4.65;;
31424;SDS011;18054;51.572;7.372;2023-11-19T06:21:41;26.45;;;4.10;;
31424;SDS011;18054;51.572;7.372;2023-11-19T06:24:09;21.23;;;3.80;;
31424;SDS011;18054;51.572;7.372;2023-11-19T06:26:36;27.95;;;4.40;;
31424;SDS011;18054;51.572;7.372;2023-11-19T06:29:05;38.88;;;5.13;;
31424;SDS011;18054;51.572;7.372;2023-11-19T06:31:33;43.58;;;4.95;;
31424;SDS011;18054;51.572;7.372;2023-11-19T06:34:00;34.85;;;4.93;;
31424;SDS011;18054;51.572;7.372;2023-11-19T06:36:28;31.90;;;4.35;;
31424;SDS011;18054;51.572;7.372;2023-11-19T06:41:23;29.80;;;4.78;;
31424;SDS011;18054;51.572;7.372;2023-11-19T06:43:50;28.08;;;4.40;;
31424;SDS011;18054;51.572;7.372;2023-11-19T06:46:20;37.50;;;6.03;;
31424;SDS011;18054;51.572;7.372;2023-11-19T06:48:47;34.15;;;4.72;;
31424;SDS011;18054;51.572;7.372;2023-11-19T06:51:15;38.08;;;5.18;;
31424;SDS011;18054;51.572;7.372;2023-11-19T06:53:42;43.40;;;4.38;;
31424;SDS011;18054;51.572;7.372;2023-11-19T06:56:17;36.53;;;5.15;;
31424;SDS011;18054;51.572;7.372;2023-11-19T06:58:44;23.52;;;4.25;;
31424;SDS011;18054;51.572;7.372;2023-11-19T07:01:14;28.75;;;4.63;;
31424;SDS011;18054;51.572;7.372;2023-11-19T07:03:43;30.73;;;5.28;;
31424;SDS011;18054;51.572;7.372;2023-11-19T07:06:11;36.15;;;5.68;;
31424;SDS011;18054;51.572;7.372;2023-11-19T07:08:39;37.17;;;4.95;;
31424;SDS011;18054;51.572;7.372;2023-11-19T07:11:06;27.80;;;4.15;;
31424;SDS011;18054;51.572;7.372;2023-11-19T07:13:36;30.92;;;4.30;;
31424;SDS011;18054;51.572;7.372;2023-11-19T07:16:04;31.42;;;6.00;;
31424;SDS011;18054;51.572;7.372;2023-11-19T07:18:31;27.20;;;4.95;;
31424;SDS011;18054;51.572;7.372;2023-11-19T07:21:03;32.92;;;4.90;;
31424;SDS011;18054;51.572;7.372;2023-11-19T07:23:31;28.75;;;4.65;;
31424;SDS011;18054;51.572;7.372;2023-11-19T07:26:00;39.47;;;5.22;;
31424;SDS011;18054;51.572;7.372;2023-11-19T07:28:28;40.50;;;6.63;;
31424;SDS011;18054;51.572;7.372;2023-11-19T07:30:55;32.50;;;5.13;;
31424;SDS011;18054;51.572;7.372;2023-11-19T07:33:23;40.20;;;6.30;;
31424;SDS011;18054;51.572;7.372;2023-11-19T07:35:51;35.75;;;4.57;;
31424;SDS011;18054;51.572;7.372;2023-11-19T07:38:20;21.63;;;4.55;;
31424;SDS011;18054;51.572;7.372;2023-11-19T07:40:47;35.15;;;4.65;;
31424;SDS011;18054;51.572;7.372;2023-11-19T07:43:18;30.10;;;4.63;;
31424;SDS011;18054;51.572;7.372;2023-11-19T07:45:45;41.38;;;5.20;;
31424;SDS011;18054;51.572;7.372;2023-11-19T07:48:13;39.10;;;5.60;;
31424;SDS011;18054;51.572;7.372;2023-11-19T07:50:41;29.95;;;4.75;;
31424;SDS011;18054;51.572;7.372;2023-11-19T07:53:09;34.75;;;5.40;;
31424;SDS011;18054;51.572;7.372;2023-11-19T07:55:40;40.03;;;4.68;;
31424;SDS011;18054;51.572;7.372;2023-11-19T07:58:08;34.95;;;4.90;;
31424;SDS011;18054;51.572;7.372;2023-11-19T08:00:35;24.00;;;4.05;;
31424;SDS011;18054;51.572;7.372;2023-11-19T08:03:03;33.78;;;4.82;;
31424;SDS011;18054;51.572;7.372;2023-11-19T08:05:31;32.88;;;4.82;;
31424;SDS011;18054;51.572;7.372;2023-11-19T08:07:59;42.78;;;5.03;;
31424;SDS011;18054;51.572;7.372;2023-11-19T08:10:27;43.97;;;5.57;;
31424;SDS011;18054;51.572;7.372;2023-11-19T08:12:56;27.30;;;5.30;;
31424;SDS011;18054;51.572;7.372;2023-11-19T08:15:23;38.63;;;4.10;;
31424;SDS011;18054;51.572;7.372;2023-11-19T08:17:54;32.92;;;4.88;;
31424;SDS011;18054;51.572;7.372;2023-11-19T08:20:21;39.80;;;6.45;;
31424;SDS011;18054;51.572;7.372;2023-11-19T08:25:17;28.10;;;3.95;;
31424;SDS011;18054;51.572;7.372;2023-11-19T08:27:44;30.40;;;5.07;;
31424;SDS011;18054;51.572;7.372;2023-11-19T08:30:14;31.65;;;4.85;;
31424;SDS011;18054;51.572;7.372;2023-11-19T08:32:42;35.90;;;4.88;;
31424;SDS011;18054;51.572;7.372;2023-11-19T08:35:09;30.83;;;4.03;;
31424;SDS011;18054;51.572;7.372;2023-11-19T08:37:37;40.83;;;4.97;;
31424;SDS011;18054;51.572;7.372;2023-11-19T08:40:05;49.30;;;4.82;;
31424;SDS011;18054;51.572;7.372;2023-11-19T08:42:33;31.73;;;4.93;;
31424;SDS011;18054;51.572;7.372;2023-11-19T08:45:01;27.15;;;4.63;;
31424;SDS011;18054;51.572;7.372;2023-11-19T08:47:30;54.60;;;5.68;;
31424;SDS011;18054;51.572;7.372;2023-11-19T08:49:57;32.28;;;5.30;;
31424;SDS011;18054;51.572;7.372;2023-11-19T08:52:28;27.83;;;4.05;;
31424;SDS011;18054;51.572;7.372;2023-11-19T08:54:58;30.05;;;4.25;;
31424;SDS011;18054;51.572;7.372;2023-11-19T08:57:26;37.95;;;4.43;;
31424;SDS011;18054;51.572;7.372;2023-11-19T08:59:54;46.95;;;6.57;;
31424;SDS011;18054;51.572;7.372;2023-11-19T09:02:21;29.77;;;5.30;;
31424;SDS011;18054;51.572;7.372;2023-11-19T09:04:50;35.75;;;5.18;;
31424;SDS011;18054;51.572;7.372;2023-11-19T09:07:20;41.05;;;4.90;;
31424;SDS011;18054;51.572;7.372;2023-11-19T09:12:15;39.85;;;5.28;;
31424;SDS011;18054;51.572;7.372;2023-11-19T09:14:42;28.98;;;4.63;;
31424;SDS011;18054;51.572;7.372;2023-11-19T09:17:10;33.35;;;5.22;;
31424;SDS011;18054;51.572;7.372;2023-11-19T09:19:37;41.10;;;5.53;;
31424;SDS011;18054;51.572;7.372;2023-11-19T09:22:06;44.33;;;6.93;;
31424;SDS011;18054;51.572;7.372;2023-11-19T09:24:34;31.95;;;5.60;;
31424;SDS011;18054;51.572;7.372;2023-11-19T09:27:01;29.55;;;5.50;;
31424;SDS011;18054;51.572;7.372;2023-11-19T09:29:31;30.40;;;4.38;;
31424;SDS011;18054;51.572;7.372;2023-11-19T09:31:58;37.67;;;6.32;;
31424;SDS011;18054;51.572;7.372;2023-11-19T09:34:27;38.30;;;5.30;;
31424;SDS011;18054;51.572;7.372;2023-11-19T09:36:55;37.65;;;4.63;;
31424;SDS011;18054;51.572;7.372;2023-11-19T09:39:24;34.33;;;5.13;;
31424;SDS011;18054;51.572;7.372;2023-11-19T09:41:52;31.75;;;5.53;;
31424;SDS011;18054;51.572;7.372;2023-11-19T09:44:20;43.00;;;7.45;;
31424;SDS011;18054;51.572;7.372;2023-11-19T09:46:47;32.92;;;4.15;;
31424;SDS011;18054;51.572;7.372;2023-11-19T09:49:15;42.30;;;4.93;;
31424;SDS011;18054;51.572;7.372;2023-11-19T09:52:01;29.73;;;4.68;;
31424;SDS011;18054;51.572;7.372;2023-11-19T09:54:31;48.08;;;6.75;;
31424;SDS011;18054;51.572;7.372;2023-11-19T09:56:58;32.90;;;4.95;;
31424;SDS011;18054;51.572;7.372;2023-11-19T09:59:29;40.15;;;5.97;;
31424;SDS011;18054;51.572;7.372;2023-11-19T10:01:56;33.92;;;4.72;;
31424;SDS011;18054;51.572;7.372;2023-11-19T10:04:24;33.40;;;5.07;;
31424;SDS011;18054;51.572;7.372;2023-11-19T10:06:53;33.97;;;4.78;;
31424;SDS011;18054;51.572;7.372;2023-11-19T10:09:20;40.35;;;5.03;;
31424;SDS011;18054;51.572;7.372;2023-11-19T10:11:49;31.20;;;5.97;;
31424;SDS011;18054;51.572;7.372;2023-11-19T10:14:17;32.67;;;5.28;;
31424;SDS011;18054;51.572;7.372;2023-11-19T10:16:46;35.92;;;6.13;;
31424;SDS011;18054;51.572;7.372;2023-11-19T10:19:18;36.72;;;5.00;;
31424;SDS011;18054;51.572;7.372;2023-11-19T10:21:46;42.58;;;6.25;;
31424;SDS011;18054;51.572;7.372;2023-11-19T10:24:14;38.95;;;5.15;;
31424;SDS011;18054;51.572;7.372;2023-11-19T10:26:57;37.13;;;4.45;;
31424;SDS011;18054;51.572;7.372;2023-11-19T10:29:25;26.33;;;4.55;;
31424;SDS011;18054;51.572;7.372;2023-11-19T10:31:55;50.40;;;6.28;;
31424;SDS011;18054;51.572;7.372;2023-11-19T10:34:24;42.47;;;5.55;;
31424;SDS011;18054;51.572;7.372;2023-11-19T10:36:52;43.65;;;5.72;;
31424;SDS011;18054;51.572;7.372;2023-11-19T10:39:19;44.70;;;6.10;;
31424;SDS011;18054;51.572;7.372;2023-11-19T10:41:49;30.15;;;5.20;;
31424;SDS011;18054;51.572;7.372;2023-11-19T10:44:32;32.38;;;4.88;;
31424;SDS011;18054;51.572;7.372;2023-11-19T10:47:02;36.83;;;5.20;;
31424;SDS011;18054;51.572;7.372;2023-11-19T10:49:32;43.80;;;4.85;;
31424;SDS011;18054;51.572;7.372;2023-11-19T10:52:01;30.25;;;5.82;;
31424;SDS011;18054;51.572;7.372;2023-11-19T10:54:30;32.97;;;5.55;;
31424;SDS011;18054;51.572;7.372;2023-11-19T10:56:58;32.97;;;5.25;;
31424;SDS011;18054;51.572;7.372;2023-11-19T10:59:27;37.38;;;5.28;;
31424;SDS011;18054;51.572;7.372;2023-11-19T11:02:02;31.00;;;4.07;;
31424;SDS011;18054;51.572;7.372;2023-11-19T11:04:32;39.45;;;5.70;;
31424;SDS011;18054;51.572;7.372;2023-11-19T11:07:00;27.58;;;4.38;;
31424;SDS011;18054;51.572;7.372;2023-11-19T11:09:29;35.83;;;4.88;;
31424;SDS011;18054;51.572;7.372;2023-11-19T11:11:57;33.47;;;6.30;;
31424;SDS011;18054;51.572;7.372;2023-11-19T11:14:26;35.90;;;5.30;;
31424;SDS011;18054;51.572;7.372;2023-11-19T11:16:54;37.50;;;5.68;;
31424;SDS011;18054;51.572;7.372;2023-11-19T11:19:25;26.42;;;3.90;;
31424;SDS011;18054;51.572;7.372;2023-11-19T11:21:53;30.58;;;6.07;;
31424;SDS011;18054;51.572;7.372;2023-11-19T11:30:01;34.08;;;4.68;;
31424;SDS011;18054;51.572;7.372;2023-11-19T11:32:34;27.85;;;4.53;;
31424;SDS011;18054;51.572;7.372;2023-11-19T11:35:15;31.83;;;5.05;;
31424;SDS011;18054;51.572;7.372;2023-11-19T11:37:47;39.28;;;4.93;;
31424;SDS011;18054;51.572;7.372;2023-11-19T11:40:17;41.92;;;6.25;;
31424;SDS011;18054;51.572;7.372;2023-11-19T11:42:45;32.65;;;4.97;;
31424;SDS011;18054;51.572;7.372;2023-11-19T11:45:13;33.33;;;4.38;;
31424;SDS011;18054;51.572;7.372;2023-11-19T11:50:28;33.72;;;5.10;;
31424;SDS011;18054;51.572;7.372;2023-11-19T11:55:52;29.15;;;4.40;;
31424;SDS011;18054;51.572;7.372;2023-11-19T11:58:21;34.38;;;4.78;;
31424;SDS011;18054;51.572;7.372;2023-11-19T12:00:49;26.83;;;5.47;;
31424;SDS011;18054;51.572;7.372;2023-11-19T12:03:19;24.77;;;3.88;;
31424;SDS011;18054;51.572;7.372;2023-11-19T12:05:49;34.47;;;5.30;;
31424;SDS011;18054;51.572;7.372;2023-11-19T12:08:18;27.52;;;4.40;;
31424;SDS011;18054;51.572;7.372;2023-11-19T12:10:52;27.67;;;4.45;;
31424;SDS011;18054;51.572;7.372;2023-11-19T12:13:20;26.25;;;3.97;;
31424;SDS011;18054;51.572;7.372;2023-11-19T12:18:31;28.10;;;4.25;;
31424;SDS011;18054;51.572;7.372;2023-11-19T12:21:00;28.35;;;4.20;;
31424;SDS011;18054;51.572;7.372;2023-11-19T12:23:28;28.00;;;4.00;;
31424;SDS011;18054;51.572;7.372;2023-11-19T12:25:56;29.17;;;4.82;;
31424;SDS011;18054;51.572;7.372;2023-11-19T12:30:53;23.55;;;3.78;;
31424;SDS011;18054;51.572;7.372;2023-11-19T12:35:48;31.00;;;4.20;;
31424;SDS011;18054;51.572;7.372;2023-11-19T12:38:20;25.70;;;4.15;;
31424;SDS011;18054;51.572;7.372;2023-11-19T12:40:48;27.15;;;4.40;;
31424;SDS011;18054;51.572;7.372;2023-11-19T12:43:29;31.08;;;5.82;;
31424;SDS011;18054;51.572;7.372;2023-11-19T12:45:56;34.85;;;4.70;;
31424;SDS011;18054;51.572;7.372;2023-11-19T12:48:24;25.85;;;4.28;;
31424;SDS011;18054;51.572;7.372;2023-11-19T12:50:52;36.20;;;4.90;;
31424;SDS011;18054;51.572;7.372;2023-11-19T12:53:21;33.95;;;4.50;;
31424;SDS011;18054;51.572;7.372;2023-11-19T12:55:49;27.45;;;4.35;;
31424;SDS011;18054;51.572;7.372;2023-11-19T12:58:29;25.42;;;4.82;;
31424;SDS011;18054;51.572;7.372;2023-11-19T13:01:01;26.80;;;4.90;;
31424;SDS011;18054;51.572;7.372;2023-11-19T13:03:29;20.58;;;4.03;;
31424;SDS011;18054;51.572;7.372;2023-11-19T13:06:01;21.73;;;3.63;;
31424;SDS011;18054;51.572;7.372;2023-11-19T13:08:35;29.00;;;4.65;;
31424;SDS011;18054;51.572;7.372;2023-11-19T13:11:03;37.33;;;4.43;;
31424;SDS011;18054;51.572;7.372;2023-11-19T13:13:30;34.95;;;4.00;;
31424;SDS011;18054;51.572;7.372;2023-11-19T13:16:01;30.33;;;3.95;;
31424;SDS011;18054;51.572;7.372;2023-11-19T13:18:29;26.40;;;4.53;;
31424;SDS011;18054;51.572;7.372;2023-11-19T13:21:00;22.98;;;3.97;;
31424;SDS011;18054;51.572;7.372;2023-11-19T13:23:27;28.98;;;4.25;;
31424;SDS011;18054;51.572;7.372;2023-11-19T13:25:56;39.13;;;4.97;;
31424;SDS011;18054;51.572;7.372;2023-11-19T13:28:24;25.02;;;4.10;;
31424;SDS011;18054;51.572;7.372;2023-11-19T13:30:52;28.75;;;4.35;;
31424;SDS011;18054;51.572;7.372;2023-11-19T13:33:20;23.58;;;3.45;;
31424;SDS011;18054;51.572;7.372;2023-11-19T13:35:48;31.15;;;4.68;;
31424;SDS011;18054;51.572;7.372;2023-11-19T13:38:15;19.77;;;3.25;;
31424;SDS011;18054;51.572;7.372;2023-11-19T13:40:43;28.90;;;3.80;;
31424;SDS011;18054;51.572;7.372;2023-11-19T13:43:11;17.25;;;3.17;;
31424;SDS011;18054;51.572;7.372;2023-11-19T13:45:39;25.67;;;3.90;;
31424;SDS011;18054;51.572;7.372;2023-11-19T13:48:06;28.60;;;4.43;;
31424;SDS011;18054;51.572;7.372;2023-11-19T13:50:34;20.38;;;3.80;;
31424;SDS011;18054;51.572;7.372;2023-11-19T13:53:01;21.73;;;4.00;;
31424;SDS011;18054;51.572;7.372;2023-11-19T13:55:31;12.80;;;3.00;;
31424;SDS011;18054;51.572;7.372;2023-11-19T13:57:58;22.98;;;3.05;;
31424;SDS011;18054;51.572;7.372;2023-11-19T14:00:27;32.03;;;3.60;;
31424;SDS011;18054;51.572;7.372;2023-11-19T14:02:55;30.48;;;4.90;;
31424;SDS011;18054;51.572;7.372;2023-11-19T14:05:23;31.35;;;3.83;;
31424;SDS011;18054;51.572;7.372;2023-11-19T14:07:53;23.67;;;3.65;;
31424;SDS011;18054;51.572;7.372;2023-11-19T14:10:22;25.80;;;3.10;;
31424;SDS011;18054;51.572;7.372;2023-11-19T14:12:50;22.25;;;3.75;;
31424;SDS011;18054;51.572;7.372;2023-11-19T14:15:18;28.15;;;4.15;;
31424;SDS011;18054;51.572;7.372;2023-11-19T14:20:14;21.40;;;4.00;;
31424;SDS011;18054;51.572;7.372;2023-11-19T14:22:43;26.45;;;3.65;;
31424;SDS011;18054;51.572;7.372;2023-11-19T14:25:11;26.73;;;3.78;;
31424;SDS011;18054;51.572;7.372;2023-11-19T14:27:38;32.97;;;3.78;;
31424;SDS011;18054;51.572;7.372;2023-11-19T14:30:07;27.50;;;4.47;;
31424;SDS011;18054;51.572;7.372;2023-11-19T14:32:35;24.10;;;3.80;;
31424;SDS011;18054;51.572;7.372;2023-11-19T14:35:02;23.08;;;4.63;;
31424;SDS011;18054;51.572;7.372;2023-11-19T14:37:32;26.08;;;4.22;;
31424;SDS011;18054;51.572;7.372;2023-11-19T14:39:59;27.75;;;3.88;;
31424;SDS011;18054;51.572;7.372;2023-11-19T14:42:28;27.67;;;5.18;;
31424;SDS011;18054;51.572;7.372;2023-11-19T14:44:56;22.77;;;4.03;;
31424;SDS011;18054;51.572;7.372;2023-11-19T14:47:23;22.20;;;3.80;;
31424;SDS011;18054;51.572;7.372;2023-11-19T14:49:51;26.98;;;4.47;;
31424;SDS011;18054;51.572;7.372;2023-11-19T14:52:18;21.20;;;3.47;;
31424;SDS011;18054;51.572;7.372;2023-11-19T14:54:47;26.17;;;3.10;;
31424;SDS011;18054;51.572;7.372;2023-11-19T14:57:17;21.60;;;3.97;;
31424;SDS011;18054;51.572;7.372;2023-11-19T14:59:45;17.77;;;3.13;;
31424;SDS011;18054;51.572;7.372;2023-11-19T15:02:13;28.38;;;4.03;;
31424;SDS011;18054;51.572;7.372;2023-11-19T15:04:40;22.33;;;2.72;;
31424;SDS011;18054;51.572;7.372;2023-11-19T15:07:10;27.80;;;3.35;;
31424;SDS011;18054;51.572;7.372;2023-11-19T15:09:38;22.33;;;3.75;;
31424;SDS011;18054;51.572;7.372;2023-11-19T15:12:07;31.55;;;4.75;;
31424;SDS011;18054;51.572;7.372;2023-11-19T15:14:35;31.27;;;3.90;;
31424;SDS011;18054;51.572;7.372;2023-11-19T15:17:02;26.55;;;3.05;;
31424;SDS011;18054;51.572;7.372;2023-11-19T15:19:31;22.52;;;3.65;;
31424;SDS011;18054;51.572;7.372;2023-11-19T15:21:58;22.92;;;4.22;;
31424;SDS011;18054;51.572;7.372;2023-11-19T15:24:26;31.10;;;3.95;;
31424;SDS011;18054;51.572;7.372;2023-11-19T15:26:54;26.48;;;3.40;;
31424;SDS011;18054;51.572;7.372;2023-11-19T15:29:41;24.92;;;3.80;;
31424;SDS011;18054;51.572;7.372;2023-11-19T15:32:08;20.85;;;3.80;;
31424;SDS011;18054;51.572;7.372;2023-11-19T15:34:36;20.90;;;3.65;;
31424;SDS011;18054;51.572;7.372;2023-11-19T15:37:04;25.58;;;3.45;;